createdAt,value
2023-02-22T00:00:12.485Z,0.00
2023-02-22T00:01:12.443Z,0.00
2023-02-22T00:02:12.527Z,0.00
2023-02-22T00:03:12.509Z,0.00
2023-02-22T00:04:12.530Z,0.00
2023-02-22T00:05:12.427Z,0.00
2023-02-22T00:06:12.529Z,0.00
2023-02-22T00:07:12.392Z,0.00
2023-02-22T00:08:12.539Z,0.00
2023-02-22T00:09:12.433Z,0.00
2023-02-22T00:10:12.369Z,0.00
2023-02-22T00:11:12.393Z,0.00
2023-02-22T00:12:12.362Z,0.00
2023-02-22T00:13:12.363Z,0.00
2023-02-22T00:14:12.341Z,0.00
2023-02-22T00:15:12.381Z,0.00
2023-02-22T00:16:12.363Z,0.00
2023-02-22T00:17:12.241Z,0.00
2023-02-22T00:18:12.355Z,0.00
2023-02-22T00:19:12.312Z,0.00
2023-02-22T00:20:12.761Z,0.00
2023-02-22T00:21:12.372Z,0.00
2023-02-22T00:22:12.256Z,0.00
2023-02-22T00:23:12.307Z,0.00
2023-02-22T00:24:12.249Z,0.00
2023-02-22T00:25:12.334Z,0.00
2023-02-22T00:26:12.293Z,0.00
2023-02-22T00:27:12.307Z,0.00
2023-02-22T00:28:12.202Z,0.00
2023-02-22T00:29:12.373Z,0.00
2023-02-22T00:30:12.264Z,0.00
2023-02-22T00:31:12.370Z,0.00
2023-02-22T00:32:12.279Z,0.00
2023-02-22T00:33:12.192Z,0.00
2023-02-22T00:34:12.154Z,0.00
2023-02-22T00:35:12.162Z,0.00
2023-02-22T00:36:12.197Z,0.00
2023-02-22T00:37:12.143Z,0.00
2023-02-22T00:38:12.109Z,0.00
2023-02-22T00:39:12.055Z,0.00
2023-02-22T00:40:12.072Z,0.00
2023-02-22T00:41:12.096Z,0.00
2023-02-22T00:42:12.083Z,0.00
2023-02-22T00:43:12.026Z,0.00
2023-02-22T00:44:12.097Z,0.00
2023-02-22T00:45:12.024Z,0.00
2023-02-22T00:46:12.021Z,0.00
2023-02-22T00:47:12.008Z,0.00
2023-02-22T00:48:12.078Z,0.00
2023-02-22T00:49:11.988Z,0.00
2023-02-22T00:50:12.017Z,0.00
2023-02-22T00:51:12.044Z,0.00
2023-02-22T00:52:12.028Z,0.00
2023-02-22T00:53:12.015Z,0.00
2023-02-22T00:54:12.173Z,0.00
2023-02-22T00:55:13.023Z,0.00
2023-02-22T00:56:11.998Z,0.00
2023-02-22T00:57:12.011Z,0.00
2023-02-22T00:58:12.101Z,0.00
2023-02-22T00:59:12.036Z,0.00
2023-02-22T01:00:12.086Z,0.00
2023-02-22T01:01:12.007Z,0.00
2023-02-22T01:02:12.033Z,0.00
2023-02-22T01:03:13.062Z,0.00
2023-02-22T01:04:11.998Z,0.00
2023-02-22T01:05:11.970Z,0.00
2023-02-22T01:06:11.967Z,0.00
2023-02-22T01:07:11.943Z,0.00
2023-02-22T01:08:11.995Z,0.00
2023-02-22T01:09:12.064Z,0.00
2023-02-22T01:10:12.051Z,0.00
2023-02-22T01:11:12.012Z,0.00
2023-02-22T01:12:12.007Z,0.00
2023-02-22T01:13:12.293Z,0.00
2023-02-22T01:14:11.940Z,0.00
2023-02-22T01:15:11.970Z,0.00
2023-02-22T01:16:11.933Z,0.00
2023-02-22T01:17:11.813Z,0.00
2023-02-22T01:18:11.875Z,0.00
2023-02-22T01:19:11.898Z,0.00
2023-02-22T01:20:11.947Z,0.00
2023-02-22T01:21:11.887Z,0.00
2023-02-22T01:22:11.874Z,0.00
2023-02-22T01:23:11.849Z,0.00
2023-02-22T01:24:11.824Z,0.00
2023-02-22T01:25:12.069Z,0.00
2023-02-22T01:26:11.842Z,0.00
2023-02-22T01:27:11.791Z,0.00
2023-02-22T01:28:14.897Z,0.00
2023-02-22T01:29:12.855Z,0.00
2023-02-22T01:30:11.924Z,0.00
2023-02-22T01:31:11.797Z,0.00
2023-02-22T01:32:11.934Z,0.00
2023-02-22T01:33:11.753Z,0.00
2023-02-22T01:34:11.840Z,0.00
2023-02-22T01:35:11.761Z,0.00
2023-02-22T01:36:11.853Z,0.00
2023-02-22T01:37:11.823Z,0.00
2023-02-22T01:38:11.936Z,0.00
2023-02-22T01:39:11.735Z,0.00
2023-02-22T01:40:11.831Z,0.00
2023-02-22T01:41:28.499Z,0.00
2023-02-22T01:42:12.650Z,0.00
2023-02-22T01:43:11.654Z,0.00
2023-02-22T01:44:11.712Z,0.00
2023-02-22T01:45:11.697Z,0.00
2023-02-22T01:46:11.660Z,0.00
2023-02-22T01:47:11.693Z,0.00
2023-02-22T01:48:11.623Z,0.00
2023-02-22T01:49:11.628Z,0.00
2023-02-22T01:50:11.609Z,0.00
2023-02-22T01:51:11.652Z,0.00
2023-02-22T01:52:11.549Z,0.00
2023-02-22T01:53:11.613Z,0.00
2023-02-22T01:54:11.624Z,0.00
2023-02-22T01:55:11.507Z,0.00
2023-02-22T01:56:11.577Z,0.00
2023-02-22T01:57:11.553Z,0.00
2023-02-22T01:58:11.572Z,0.00
2023-02-22T01:59:11.512Z,0.00
2023-02-22T02:00:11.480Z,0.00
2023-02-22T02:01:11.489Z,0.00
2023-02-22T02:02:11.501Z,0.00
2023-02-22T02:03:11.481Z,0.00
2023-02-22T02:04:11.722Z,0.00
2023-02-22T02:05:11.560Z,0.00
2023-02-22T02:06:11.451Z,0.00
2023-02-22T02:07:11.460Z,0.00
2023-02-22T02:08:11.431Z,0.00
2023-02-22T02:09:11.505Z,0.00
2023-02-22T02:10:11.501Z,0.00
2023-02-22T02:11:11.467Z,0.00
2023-02-22T02:12:11.479Z,0.00
2023-02-22T02:13:11.461Z,0.00
2023-02-22T02:14:11.457Z,0.00
2023-02-22T02:15:11.483Z,0.00
2023-02-22T02:16:11.453Z,0.00
2023-02-22T02:17:11.384Z,0.00
2023-02-22T02:18:11.483Z,0.00
2023-02-22T02:19:11.441Z,0.00
2023-02-22T02:20:11.480Z,0.00
2023-02-22T02:21:11.430Z,0.00
2023-02-22T02:22:11.487Z,0.00
2023-02-22T02:23:11.438Z,0.00
2023-02-22T02:24:11.477Z,0.00
2023-02-22T02:25:11.418Z,0.00
2023-02-22T02:26:11.742Z,0.00
2023-02-22T02:27:11.369Z,0.00
2023-02-22T02:28:11.412Z,0.00
2023-02-22T02:29:11.361Z,0.00
2023-02-22T02:30:11.412Z,0.00
2023-02-22T02:31:11.385Z,0.00
2023-02-22T02:32:11.520Z,0.00
2023-02-22T02:33:11.323Z,0.00
2023-02-22T02:34:11.299Z,0.00
2023-02-22T02:35:11.340Z,0.00
2023-02-22T02:36:11.294Z,0.00
2023-02-22T02:37:11.371Z,0.00
2023-02-22T02:38:11.304Z,0.00
2023-02-22T02:39:11.330Z,0.00
2023-02-22T02:40:11.466Z,0.00
2023-02-22T02:41:11.467Z,0.00
2023-02-22T02:42:11.334Z,0.00
2023-02-22T02:43:11.298Z,0.00
2023-02-22T02:44:11.299Z,0.00
2023-02-22T02:45:11.351Z,0.00
2023-02-22T02:46:11.253Z,0.00
2023-02-22T02:47:11.459Z,0.00
2023-02-22T02:48:11.267Z,0.00
2023-02-22T02:49:11.356Z,0.00
2023-02-22T02:50:11.251Z,0.00
2023-02-22T02:51:11.225Z,0.00
2023-02-22T02:52:11.200Z,0.00
2023-02-22T02:53:12.371Z,0.00
2023-02-22T02:54:11.225Z,0.00
2023-02-22T02:55:12.181Z,0.00
2023-02-22T02:56:11.175Z,0.00
2023-02-22T02:57:11.201Z,0.00
2023-02-22T02:58:11.247Z,0.00
2023-02-22T02:59:11.188Z,0.00
2023-02-22T03:00:11.170Z,0.00
2023-02-22T03:01:11.166Z,0.00
2023-02-22T03:02:11.117Z,0.00
2023-02-22T03:03:11.126Z,0.00
2023-02-22T03:04:11.168Z,0.00
2023-02-22T03:05:11.069Z,0.00
2023-02-22T03:06:11.022Z,0.00
2023-02-22T03:07:11.062Z,0.00
2023-02-22T03:08:11.178Z,0.00
2023-02-22T03:09:11.040Z,0.00
2023-02-22T03:10:11.068Z,0.00
2023-02-22T03:11:10.974Z,0.00
2023-02-22T03:12:11.029Z,0.00
2023-02-22T03:13:10.975Z,0.00
2023-02-22T03:14:11.079Z,0.00
2023-02-22T03:15:11.090Z,0.00
2023-02-22T03:16:11.043Z,0.00
2023-02-22T03:17:10.962Z,0.00
2023-02-22T03:18:11.050Z,0.00
2023-02-22T03:19:11.047Z,0.00
2023-02-22T03:20:41.940Z,0.00
2023-02-22T03:21:11.945Z,0.00
2023-02-22T03:22:10.978Z,0.00
2023-02-22T03:23:10.992Z,0.00
2023-02-22T03:24:10.976Z,0.00
2023-02-22T03:25:11.010Z,0.00
2023-02-22T03:26:11.053Z,0.00
2023-02-22T03:27:11.027Z,0.00
2023-02-22T03:28:11.010Z,0.00
2023-02-22T03:29:10.994Z,0.00
2023-02-22T03:30:10.957Z,0.00
2023-02-22T03:31:11.169Z,0.00
2023-02-22T03:32:10.925Z,0.00
2023-02-22T03:33:11.005Z,0.00
2023-02-22T03:34:10.951Z,0.00
2023-02-22T03:35:11.016Z,0.00
2023-02-22T03:36:10.877Z,0.00
2023-02-22T03:37:10.935Z,0.00
2023-02-22T03:38:10.910Z,0.00
2023-02-22T03:39:10.942Z,0.00
2023-02-22T03:40:10.908Z,0.00
2023-02-22T03:41:10.884Z,0.00
2023-02-22T03:42:10.897Z,0.00
2023-02-22T03:43:10.913Z,0.00
2023-02-22T03:44:10.881Z,0.00
2023-02-22T03:45:10.829Z,0.00
2023-02-22T03:46:10.912Z,0.00
2023-02-22T03:47:10.877Z,0.00
2023-02-22T03:48:10.930Z,0.00
2023-02-22T03:49:10.830Z,0.00
2023-02-22T03:50:10.812Z,0.00
2023-02-22T03:51:10.890Z,0.00
2023-02-22T03:52:10.842Z,0.00
2023-02-22T03:53:10.845Z,0.00
2023-02-22T03:54:10.849Z,0.00
2023-02-22T03:55:10.805Z,0.00
2023-02-22T03:56:10.886Z,0.00
2023-02-22T03:57:10.769Z,0.00
2023-02-22T03:58:10.965Z,0.00
2023-02-22T03:59:10.772Z,0.00
2023-02-22T04:00:10.762Z,0.00
2023-02-22T04:01:10.856Z,0.00
2023-02-22T04:02:10.758Z,0.00
2023-02-22T04:03:10.777Z,0.00
2023-02-22T04:04:10.741Z,0.00
2023-02-22T04:05:10.796Z,0.00
2023-02-22T04:06:10.732Z,0.00
2023-02-22T04:07:10.760Z,0.00
2023-02-22T04:08:10.716Z,0.00
2023-02-22T04:09:10.717Z,0.00
2023-02-22T04:10:10.659Z,0.00
2023-02-22T04:11:10.684Z,0.00
2023-02-22T04:12:10.661Z,0.00
2023-02-22T04:13:10.731Z,0.00
2023-02-22T04:14:10.706Z,0.00
2023-02-22T04:15:10.767Z,0.00
2023-02-22T04:16:10.765Z,0.00
2023-02-22T04:17:10.552Z,0.00
2023-02-22T04:18:10.620Z,0.00
2023-02-22T04:19:10.696Z,0.00
2023-02-22T04:20:10.688Z,0.00
2023-02-22T04:21:10.765Z,0.00
2023-02-22T04:22:10.617Z,0.00
2023-02-22T04:23:10.776Z,0.00
2023-02-22T04:24:11.432Z,0.00
2023-02-22T04:25:10.555Z,0.00
2023-02-22T04:26:10.566Z,0.00
2023-02-22T04:27:10.506Z,0.00
2023-02-22T04:28:31.626Z,0.00
2023-02-22T04:29:10.489Z,0.00
2023-02-22T04:30:10.580Z,0.00
2023-02-22T04:31:11.029Z,0.00
2023-02-22T04:32:10.503Z,0.00
2023-02-22T04:33:10.572Z,0.00
2023-02-22T04:34:10.416Z,0.00
2023-02-22T04:35:10.512Z,0.00
2023-02-22T04:36:10.419Z,0.00
2023-02-22T04:37:10.639Z,0.00
2023-02-22T04:38:10.566Z,0.00
2023-02-22T04:39:10.449Z,0.00
2023-02-22T04:40:10.477Z,0.00
2023-02-22T04:41:10.442Z,0.00
2023-02-22T04:42:10.413Z,0.00
2023-02-22T04:43:10.531Z,0.00
2023-02-22T04:44:10.352Z,0.00
2023-02-22T04:45:10.450Z,0.00
2023-02-22T04:46:10.472Z,0.00
2023-02-22T04:47:10.387Z,0.00
2023-02-22T04:48:10.492Z,0.00
2023-02-22T04:49:10.441Z,0.00
2023-02-22T04:50:10.338Z,0.00
2023-02-22T04:51:10.445Z,0.00
2023-02-22T04:52:10.448Z,0.00
2023-02-22T04:53:10.385Z,0.00
2023-02-22T04:54:10.475Z,0.00
2023-02-22T04:55:10.425Z,0.00
2023-02-22T04:56:10.309Z,0.00
2023-02-22T04:57:10.320Z,0.00
2023-02-22T04:58:10.314Z,0.00
2023-02-22T04:59:10.347Z,0.00
2023-02-22T05:00:10.331Z,0.00
2023-02-22T05:01:10.449Z,0.00
2023-02-22T05:02:10.244Z,0.00
2023-02-22T05:03:10.390Z,0.00
2023-02-22T05:04:10.448Z,0.00
2023-02-22T05:05:10.270Z,0.00
2023-02-22T05:06:10.316Z,0.00
2023-02-22T05:07:10.387Z,0.00
2023-02-22T05:08:10.238Z,0.00
2023-02-22T05:09:11.475Z,0.00
2023-02-22T05:10:10.327Z,0.00
2023-02-22T05:11:10.218Z,0.00
2023-02-22T05:12:10.306Z,0.00
2023-02-22T05:13:10.300Z,0.00
2023-02-22T05:14:10.285Z,0.00
2023-02-22T05:15:10.396Z,0.00
2023-02-22T05:16:10.300Z,0.00
2023-02-22T05:17:10.230Z,0.00
2023-02-22T05:18:10.316Z,0.00
2023-02-22T05:19:10.288Z,0.00
2023-02-22T05:20:11.163Z,0.00
2023-02-22T05:21:10.213Z,0.00
2023-02-22T05:22:10.234Z,0.00
2023-02-22T05:23:10.119Z,0.00
2023-02-22T05:24:10.333Z,0.00
2023-02-22T05:25:10.346Z,0.00
2023-02-22T05:26:11.613Z,0.00
2023-02-22T05:27:11.186Z,0.00
2023-02-22T05:28:10.290Z,0.00
2023-02-22T05:29:10.084Z,0.00
2023-02-22T05:30:10.327Z,0.00
2023-02-22T05:31:10.245Z,0.00
2023-02-22T05:32:10.146Z,0.00
2023-02-22T05:33:10.158Z,0.00
2023-02-22T05:34:10.155Z,0.00
2023-02-22T05:35:10.077Z,0.00
2023-02-22T05:36:10.442Z,0.00
2023-02-22T05:37:10.191Z,0.00
2023-02-22T05:38:10.086Z,0.00
2023-02-22T05:39:10.134Z,0.00
2023-02-22T05:40:10.122Z,0.00
2023-02-22T05:41:10.126Z,0.00
2023-02-22T05:42:10.172Z,0.00
2023-02-22T05:43:11.130Z,0.00
2023-02-22T05:44:10.097Z,0.00
2023-02-22T05:45:10.036Z,0.00
2023-02-22T05:46:10.194Z,0.00
2023-02-22T05:47:10.109Z,0.00
2023-02-22T05:48:10.031Z,0.00
2023-02-22T05:49:09.997Z,0.00
2023-02-22T05:50:09.994Z,0.00
2023-02-22T05:51:10.004Z,0.00
2023-02-22T05:52:09.979Z,0.00
2023-02-22T05:53:10.038Z,0.00
2023-02-22T05:54:09.976Z,0.00
2023-02-22T05:55:09.916Z,0.00
2023-02-22T05:56:10.991Z,0.00
2023-02-22T05:57:09.937Z,0.00
2023-02-22T05:58:09.998Z,0.00
2023-02-22T05:59:09.990Z,0.00
2023-02-22T06:00:09.904Z,0.00
2023-02-22T06:01:09.919Z,0.00
2023-02-22T06:02:09.944Z,0.00
2023-02-22T06:03:09.868Z,0.00
2023-02-22T06:04:09.996Z,0.00
2023-02-22T06:05:09.952Z,0.00
2023-02-22T06:06:09.943Z,0.00
2023-02-22T06:07:09.967Z,0.00
2023-02-22T06:08:09.980Z,0.00
2023-02-22T06:09:09.979Z,0.00
2023-02-22T06:10:10.016Z,0.00
2023-02-22T06:11:09.915Z,0.00
2023-02-22T06:12:09.941Z,0.00
2023-02-22T06:13:09.916Z,0.00
2023-02-22T06:14:09.947Z,0.00
2023-02-22T06:15:09.892Z,0.00
2023-02-22T06:16:10.044Z,0.00
2023-02-22T06:17:09.723Z,0.00
2023-02-22T06:18:09.883Z,0.00
2023-02-22T06:19:09.834Z,0.00
2023-02-22T06:20:09.835Z,0.00
2023-02-22T06:21:09.843Z,0.00
2023-02-22T06:22:09.786Z,0.00
2023-02-22T06:23:09.802Z,0.00
2023-02-22T06:24:09.770Z,0.00
2023-02-22T06:25:09.826Z,0.00
2023-02-22T06:26:09.777Z,0.00
2023-02-22T06:27:09.797Z,5.62
2023-02-22T06:28:09.792Z,5.62
2023-02-22T06:29:09.690Z,5.62
2023-02-22T06:30:11.766Z,5.62
2023-02-22T06:31:09.839Z,5.62
2023-02-22T06:32:09.737Z,5.62
2023-02-22T06:33:09.886Z,5.62
2023-02-22T06:34:09.715Z,5.62
2023-02-22T06:35:09.700Z,5.62
2023-02-22T06:36:09.896Z,5.62
2023-02-22T06:37:09.880Z,11.25
2023-02-22T06:38:09.638Z,11.25
2023-02-22T06:39:09.882Z,11.25
2023-02-22T06:40:09.710Z,11.25
2023-02-22T06:41:09.602Z,11.25
2023-02-22T06:42:09.900Z,11.25
2023-02-22T06:43:09.824Z,11.25
2023-02-22T06:44:22.973Z,11.25
2023-02-22T06:45:09.615Z,11.25
2023-02-22T06:46:09.639Z,16.88
2023-02-22T06:47:09.687Z,16.88
2023-02-22T06:48:09.654Z,16.88
2023-02-22T06:49:09.589Z,16.88
2023-02-22T06:50:09.558Z,16.88
2023-02-22T06:51:09.589Z,16.88
2023-02-22T06:52:09.540Z,16.88
2023-02-22T06:53:09.625Z,16.88
2023-02-22T06:54:09.515Z,16.88
2023-02-22T06:55:09.564Z,22.50
2023-02-22T06:56:09.522Z,22.50
2023-02-22T06:57:09.525Z,22.50
2023-02-22T06:58:09.579Z,22.50
2023-02-22T06:59:09.476Z,22.50
2023-02-22T07:00:09.636Z,22.50
2023-02-22T07:01:09.642Z,22.50
2023-02-22T07:02:09.442Z,22.50
2023-02-22T07:03:09.571Z,22.50
2023-02-22T07:04:09.614Z,22.50
2023-02-22T07:05:09.438Z,22.50
2023-02-22T07:06:09.476Z,22.50
2023-02-22T07:07:09.525Z,22.50
2023-02-22T07:08:09.573Z,28.12
2023-02-22T07:09:09.598Z,28.12
2023-02-22T07:10:09.496Z,28.12
2023-02-22T07:11:09.463Z,28.12
2023-02-22T07:12:09.625Z,28.12
2023-02-22T07:13:09.509Z,28.12
2023-02-22T07:14:09.494Z,33.75
2023-02-22T07:15:09.538Z,33.75
2023-02-22T07:16:09.473Z,33.75
2023-02-22T07:17:09.446Z,33.75
2023-02-22T07:18:09.571Z,33.75
2023-02-22T07:19:09.578Z,33.75
2023-02-22T07:20:09.473Z,39.38
2023-02-22T07:21:09.500Z,39.38
2023-02-22T07:22:09.412Z,39.38
2023-02-22T07:23:09.564Z,39.38
2023-02-22T07:24:09.454Z,39.38
2023-02-22T07:25:09.385Z,39.38
2023-02-22T07:26:09.494Z,45.00
2023-02-22T07:27:09.503Z,45.00
2023-02-22T07:28:09.383Z,45.00
2023-02-22T07:29:09.381Z,50.62
2023-02-22T07:30:09.440Z,50.62
2023-02-22T07:31:09.509Z,56.25
2023-02-22T07:32:09.566Z,56.25
2023-02-22T07:33:09.378Z,56.25
2023-02-22T07:34:09.398Z,56.25
2023-02-22T07:35:09.327Z,56.25
2023-02-22T07:36:09.505Z,56.25
2023-02-22T07:37:09.369Z,56.25
2023-02-22T07:38:09.339Z,56.25
2023-02-22T07:39:09.324Z,61.88
2023-02-22T07:40:09.325Z,61.88
2023-02-22T07:41:09.328Z,61.88
2023-02-22T07:42:09.683Z,61.88
2023-02-22T07:43:09.169Z,61.88
2023-02-22T07:44:09.303Z,61.88
2023-02-22T07:45:09.189Z,61.88
2023-02-22T07:46:09.226Z,56.25
2023-02-22T07:47:09.189Z,56.25
2023-02-22T07:48:09.240Z,61.88
2023-02-22T07:49:09.145Z,61.88
2023-02-22T07:50:09.219Z,56.25
2023-02-22T07:51:09.162Z,56.25
2023-02-22T07:52:09.113Z,50.62
2023-02-22T07:53:09.191Z,50.62
2023-02-22T07:54:09.160Z,50.62
2023-02-22T07:55:09.137Z,56.25
2023-02-22T07:56:09.115Z,56.25
2023-02-22T07:57:09.140Z,56.25
2023-02-22T07:58:09.197Z,56.25
2023-02-22T07:59:09.209Z,61.88
2023-02-22T08:00:09.171Z,67.50
2023-02-22T08:01:09.221Z,73.12
2023-02-22T08:02:09.237Z,73.12
2023-02-22T08:03:09.179Z,78.75
2023-02-22T08:04:09.237Z,84.38
2023-02-22T08:05:09.191Z,84.38
2023-02-22T08:06:09.250Z,90.00
2023-02-22T08:07:09.220Z,90.00
2023-02-22T08:08:09.097Z,90.00
2023-02-22T08:09:09.249Z,101.25
2023-02-22T08:10:09.118Z,106.88
2023-02-22T08:11:09.235Z,106.88
2023-02-22T08:12:09.129Z,106.88
2023-02-22T08:13:09.123Z,112.50
2023-02-22T08:14:09.051Z,118.12
2023-02-22T08:15:09.108Z,118.12
2023-02-22T08:16:09.120Z,123.75
2023-02-22T08:17:09.166Z,129.38
2023-02-22T08:18:10.029Z,135.00
2023-02-22T08:19:09.079Z,135.00
2023-02-22T08:20:09.150Z,140.62
2023-02-22T08:21:08.907Z,140.62
2023-02-22T08:22:09.134Z,140.62
2023-02-22T08:23:08.943Z,140.62
2023-02-22T08:24:08.981Z,140.62
2023-02-22T08:25:09.007Z,140.62
2023-02-22T08:26:09.074Z,140.62
2023-02-22T08:27:09.014Z,146.25
2023-02-22T08:28:09.026Z,146.25
2023-02-22T08:29:08.971Z,140.62
2023-02-22T08:30:09.001Z,146.25
2023-02-22T08:31:08.914Z,140.62
2023-02-22T08:32:09.103Z,140.62
2023-02-22T08:33:08.959Z,140.62
2023-02-22T08:34:08.937Z,135.00
2023-02-22T08:35:08.872Z,129.38
2023-02-22T08:36:08.993Z,129.38
2023-02-22T08:37:09.000Z,129.38
2023-02-22T08:38:08.842Z,135.00
2023-02-22T08:39:08.923Z,129.38
2023-02-22T08:40:08.941Z,135.00
2023-02-22T08:41:08.968Z,135.00
2023-02-22T08:42:08.880Z,140.62
2023-02-22T08:43:08.848Z,146.25
2023-02-22T08:44:08.752Z,146.25
2023-02-22T08:45:08.719Z,146.25
2023-02-22T08:46:09.042Z,140.62
2023-02-22T08:47:08.807Z,135.00
2023-02-22T08:48:09.021Z,135.00
2023-02-22T08:49:08.795Z,140.62
2023-02-22T08:50:08.802Z,140.62
2023-02-22T08:51:08.885Z,140.62
2023-02-22T08:52:08.753Z,146.25
2023-02-22T08:53:08.828Z,146.25
2023-02-22T08:54:08.719Z,146.25
2023-02-22T08:55:08.763Z,151.88
2023-02-22T08:56:08.791Z,151.88
2023-02-22T08:57:08.709Z,163.12
2023-02-22T08:58:08.709Z,163.12
2023-02-22T08:59:08.778Z,163.12
2023-02-22T09:00:08.648Z,168.75
2023-02-22T09:01:08.747Z,168.75
2023-02-22T09:02:08.731Z,168.75
2023-02-22T09:03:08.649Z,157.50
2023-02-22T09:04:08.748Z,168.75
2023-02-22T09:05:08.743Z,180.00
2023-02-22T09:06:08.721Z,174.38
2023-02-22T09:07:08.692Z,174.38
2023-02-22T09:08:08.753Z,174.38
2023-02-22T09:09:08.607Z,191.25
2023-02-22T09:10:08.735Z,196.88
2023-02-22T09:11:08.659Z,202.50
2023-02-22T09:12:08.607Z,202.50
2023-02-22T09:13:08.648Z,196.88
2023-02-22T09:14:08.729Z,202.50
2023-02-22T09:15:08.636Z,202.50
2023-02-22T09:16:08.753Z,191.25
2023-02-22T09:17:08.587Z,174.38
2023-02-22T09:18:08.563Z,168.75
2023-02-22T09:19:08.547Z,168.75
2023-02-22T09:20:08.606Z,163.12
2023-02-22T09:21:08.555Z,163.12
2023-02-22T09:22:08.655Z,157.50
2023-02-22T09:23:08.677Z,157.50
2023-02-22T09:24:09.586Z,163.12
2023-02-22T09:25:16.725Z,168.75
2023-02-22T09:26:10.756Z,174.38
2023-02-22T09:27:08.466Z,174.38
2023-02-22T09:28:08.607Z,174.38
2023-02-22T09:29:08.565Z,168.75
2023-02-22T09:30:08.581Z,168.75
2023-02-22T09:31:08.600Z,174.38
2023-02-22T09:32:08.652Z,174.38
2023-02-22T09:33:08.470Z,174.38
2023-02-22T09:34:08.501Z,185.62
2023-02-22T09:35:08.428Z,180.00
2023-02-22T09:36:08.406Z,180.00
2023-02-22T09:37:08.451Z,174.38
2023-02-22T09:38:08.526Z,174.38
2023-02-22T09:39:08.423Z,174.38
2023-02-22T09:40:08.316Z,180.00
2023-02-22T09:41:08.336Z,180.00
2023-02-22T09:42:08.336Z,180.00
2023-02-22T09:43:08.356Z,174.38
2023-02-22T09:44:08.362Z,174.38
2023-02-22T09:45:08.299Z,174.38
2023-02-22T09:46:08.448Z,174.38
2023-02-22T09:47:08.349Z,174.38
2023-02-22T09:48:21.197Z,174.38
2023-02-22T09:49:10.357Z,174.38
2023-02-22T09:50:08.380Z,174.38
2023-02-22T09:51:08.446Z,174.38
2023-02-22T09:52:08.373Z,174.38
2023-02-22T09:53:08.450Z,180.00
2023-02-22T09:54:08.301Z,191.25
2023-02-22T09:55:08.407Z,196.88
2023-02-22T09:56:08.390Z,196.88
2023-02-22T09:57:08.308Z,196.88
2023-02-22T09:58:08.385Z,185.62
2023-02-22T09:59:08.366Z,185.62
2023-02-22T10:00:08.207Z,185.62
2023-02-22T10:01:08.289Z,174.38
2023-02-22T10:02:08.454Z,174.38
2023-02-22T10:03:08.214Z,174.38
2023-02-22T10:04:08.385Z,168.75
2023-02-22T10:05:08.280Z,174.38
2023-02-22T10:06:08.195Z,174.38
2023-02-22T10:07:08.344Z,180.00
2023-02-22T10:08:08.302Z,196.88
2023-02-22T10:09:08.189Z,202.50
2023-02-22T10:10:08.367Z,219.38
2023-02-22T10:11:08.206Z,219.38
2023-02-22T10:12:08.130Z,219.38
2023-02-22T10:13:09.289Z,230.62
2023-02-22T10:14:08.194Z,241.88
2023-02-22T10:15:08.217Z,230.62
2023-02-22T10:16:09.178Z,241.88
2023-02-22T10:17:08.208Z,241.88
2023-02-22T10:18:08.113Z,241.88
2023-02-22T10:19:08.189Z,241.88
2023-02-22T10:20:08.165Z,241.88
2023-02-22T10:21:08.131Z,247.50
2023-02-22T10:22:08.121Z,247.50
2023-02-22T10:23:08.224Z,219.38
2023-02-22T10:24:08.106Z,208.12
2023-02-22T10:25:09.660Z,196.88
2023-02-22T10:26:09.225Z,196.88
2023-02-22T10:27:08.087Z,202.50
2023-02-22T10:28:08.048Z,219.38
2023-02-22T10:29:08.046Z,230.62
2023-02-22T10:30:23.372Z,225.00
2023-02-22T10:31:10.203Z,219.38
2023-02-22T10:32:08.057Z,219.38
2023-02-22T10:33:07.932Z,219.38
2023-02-22T10:34:08.001Z,219.38
2023-02-22T10:35:07.988Z,225.00
2023-02-22T10:36:07.999Z,225.00
2023-02-22T10:37:08.020Z,225.00
2023-02-22T10:38:08.033Z,219.38
2023-02-22T10:39:07.969Z,208.12
2023-02-22T10:40:07.963Z,202.50
2023-02-22T10:41:07.931Z,202.50
2023-02-22T10:42:12.487Z,202.50
2023-02-22T10:43:09.044Z,196.88
2023-02-22T10:44:07.914Z,196.88
2023-02-22T10:45:08.071Z,196.88
2023-02-22T10:46:08.186Z,196.88
2023-02-22T10:47:08.125Z,191.25
2023-02-22T10:48:08.115Z,202.50
2023-02-22T10:49:07.981Z,202.50
2023-02-22T10:50:08.061Z,208.12
2023-02-22T10:51:07.926Z,202.50
2023-02-22T10:52:07.953Z,202.50
2023-02-22T10:53:08.209Z,202.50
2023-02-22T10:54:07.841Z,202.50
2023-02-22T10:55:15.269Z,202.50
2023-02-22T10:56:10.013Z,202.50
2023-02-22T10:57:07.821Z,202.50
2023-02-22T10:58:07.946Z,208.12
2023-02-22T10:59:07.980Z,202.50
2023-02-22T11:00:07.896Z,208.12
2023-02-22T11:01:07.904Z,213.75
2023-02-22T11:02:07.817Z,208.12
2023-02-22T11:03:07.736Z,208.12
2023-02-22T11:04:07.857Z,202.50
2023-02-22T11:05:07.821Z,196.88
2023-02-22T11:06:08.294Z,196.88
2023-02-22T11:07:07.874Z,196.88
2023-02-22T11:08:07.813Z,196.88
2023-02-22T11:09:07.690Z,202.50
2023-02-22T11:10:07.981Z,196.88
2023-02-22T11:11:07.953Z,202.50
2023-02-22T11:12:07.945Z,196.88
2023-02-22T11:13:07.892Z,196.88
2023-02-22T11:14:07.816Z,196.88
2023-02-22T11:15:07.816Z,191.25
2023-02-22T11:16:07.776Z,191.25
2023-02-22T11:17:07.813Z,196.88
2023-02-22T11:18:08.907Z,208.12
2023-02-22T11:19:09.041Z,213.75
2023-02-22T11:20:07.918Z,219.38
2023-02-22T11:21:07.817Z,225.00
2023-02-22T11:22:07.770Z,230.62
2023-02-22T11:23:07.714Z,230.62
2023-02-22T11:24:48.662Z,230.62
2023-02-22T11:25:08.627Z,236.25
2023-02-22T11:26:07.639Z,236.25
2023-02-22T11:27:07.665Z,241.88
2023-02-22T11:28:07.632Z,236.25
2023-02-22T11:29:07.591Z,236.25
2023-02-22T11:30:07.633Z,253.12
2023-02-22T11:31:07.674Z,258.75
2023-02-22T11:32:07.683Z,264.38
2023-02-22T11:33:07.534Z,264.38
2023-02-22T11:34:07.579Z,270.00
2023-02-22T11:35:09.455Z,275.62
2023-02-22T11:36:08.533Z,275.62
2023-02-22T11:37:14.236Z,281.25
2023-02-22T11:38:08.531Z,298.12
2023-02-22T11:39:07.595Z,309.38
2023-02-22T11:40:07.642Z,315.00
2023-02-22T11:41:07.577Z,309.38
2023-02-22T11:42:07.626Z,309.38
2023-02-22T11:43:07.874Z,309.38
2023-02-22T11:44:07.602Z,292.50
2023-02-22T11:45:07.540Z,281.25
2023-02-22T11:46:07.621Z,275.62
2023-02-22T11:47:07.651Z,281.25
2023-02-22T11:48:07.794Z,303.75
2023-02-22T11:49:07.582Z,315.00
2023-02-22T11:50:07.482Z,337.50
2023-02-22T11:51:07.640Z,354.38
2023-02-22T11:52:07.509Z,343.12
2023-02-22T11:53:07.656Z,320.62
2023-02-22T11:54:08.029Z,315.00
2023-02-22T11:55:07.629Z,315.00
2023-02-22T11:56:07.809Z,298.12
2023-02-22T11:57:07.735Z,298.12
2023-02-22T11:58:07.693Z,309.38
2023-02-22T11:59:07.540Z,320.62
2023-02-22T12:00:07.517Z,326.25
2023-02-22T12:01:07.571Z,331.88
2023-02-22T12:02:07.497Z,337.50
2023-02-22T12:03:07.500Z,331.88
2023-02-22T12:04:07.439Z,326.25
2023-02-22T12:05:08.053Z,320.62
2023-02-22T12:06:07.487Z,315.00
2023-02-22T12:07:07.381Z,320.62
2023-02-22T12:08:18.981Z,326.25
2023-02-22T12:09:09.372Z,326.25
2023-02-22T12:10:07.891Z,331.88
2023-02-22T12:11:07.404Z,343.12
2023-02-22T12:12:07.249Z,348.75
2023-02-22T12:13:07.345Z,343.12
2023-02-22T12:14:07.285Z,337.50
2023-02-22T12:15:07.361Z,343.12
2023-02-22T12:16:07.376Z,354.38
2023-02-22T12:17:07.305Z,365.62
2023-02-22T12:18:07.252Z,376.88
2023-02-22T12:19:07.291Z,388.12
2023-02-22T12:20:07.385Z,399.38
2023-02-22T12:21:07.341Z,399.38
2023-02-22T12:22:07.276Z,405.00
2023-02-22T12:23:07.364Z,405.00
2023-02-22T12:24:07.682Z,399.38
2023-02-22T12:25:10.413Z,393.75
2023-02-22T12:26:10.789Z,399.38
2023-02-22T12:27:07.844Z,399.38
2023-02-22T12:28:15.618Z,405.00
2023-02-22T12:29:09.471Z,410.62
2023-02-22T12:30:07.423Z,405.00
2023-02-22T12:31:08.398Z,405.00
2023-02-22T12:32:07.284Z,410.62
2023-02-22T12:33:07.178Z,410.62
2023-02-22T12:34:07.408Z,416.25
2023-02-22T12:35:07.243Z,410.62
2023-02-22T12:36:07.256Z,410.62
2023-02-22T12:37:07.399Z,410.62
2023-02-22T12:38:07.698Z,410.62
2023-02-22T12:39:07.838Z,421.88
2023-02-22T12:40:08.301Z,427.50
2023-02-22T12:41:07.175Z,427.50
2023-02-22T12:42:07.690Z,421.88
2023-02-22T12:43:07.236Z,416.25
2023-02-22T12:44:07.254Z,421.88
2023-02-22T12:45:08.920Z,433.12
2023-02-22T12:46:08.343Z,433.12
2023-02-22T12:47:07.506Z,433.12
2023-02-22T12:48:07.280Z,433.12
2023-02-22T12:49:07.222Z,433.12
2023-02-22T12:50:07.227Z,438.75
2023-02-22T12:51:07.143Z,433.12
2023-02-22T12:52:20.619Z,433.12
2023-02-22T12:53:09.059Z,427.50
2023-02-22T12:54:07.011Z,416.25
2023-02-22T12:55:07.126Z,421.88
2023-02-22T12:56:07.174Z,433.12